sensor_id;sensor_type;location;lat;lon;timestamp;P1;durP1;ratioP1;P2;durP2;ratioP2
52816;SDS011;38687;43.330;21.924;2022-08-04T00:00:35;1.95;;;1.30;;
52816;SDS011;38687;43.330;21.924;2022-08-04T00:11:03;3.40;;;1.98;;
52816;SDS011;38687;43.330;21.924;2022-08-04T00:13:31;1.58;;;1.45;;
52816;SDS011;38687;43.330;21.924;2022-08-04T00:16:03;2.05;;;1.70;;
52816;SDS011;38687;43.330;21.924;2022-08-04T00:18:34;1.63;;;1.50;;
52816;SDS011;38687;43.330;21.924;2022-08-04T00:21:05;1.50;;;1.40;;
52816;SDS011;38687;43.330;21.924;2022-08-04T00:23:34;2.17;;;1.63;;
52816;SDS011;38687;43.330;21.924;2022-08-04T00:26:00;2.05;;;1.50;;
52816;SDS011;38687;43.330;21.924;2022-08-04T00:28:26;2.80;;;1.60;;
52816;SDS011;38687;43.330;21.924;2022-08-04T00:30:52;1.80;;;1.70;;
52816;SDS011;38687;43.330;21.924;2022-08-04T00:33:18;1.73;;;1.58;;
52816;SDS011;38687;43.330;21.924;2022-08-04T00:35:45;3.50;;;1.70;;
52816;SDS011;38687;43.330;21.924;2022-08-04T00:38:10;1.50;;;1.40;;
52816;SDS011;38687;43.330;21.924;2022-08-04T01:00:47;2.42;;;1.90;;
52816;SDS011;38687;43.330;21.924;2022-08-04T01:03:23;2.47;;;2.13;;
52816;SDS011;38687;43.330;21.924;2022-08-04T01:06:11;1.90;;;1.60;;
52816;SDS011;38687;43.330;21.924;2022-08-04T01:11:34;2.55;;;1.80;;
52816;SDS011;38687;43.330;21.924;2022-08-04T01:16:31;2.42;;;1.60;;
52816;SDS011;38687;43.330;21.924;2022-08-04T01:18:59;3.47;;;2.20;;
52816;SDS011;38687;43.330;21.924;2022-08-04T01:24:35;2.60;;;1.88;;
52816;SDS011;38687;43.330;21.924;2022-08-04T01:27:25;2.28;;;1.63;;
52816;SDS011;38687;43.330;21.924;2022-08-04T01:29:54;3.13;;;1.80;;
52816;SDS011;38687;43.330;21.924;2022-08-04T01:32:22;1.63;;;1.52;;
52816;SDS011;38687;43.330;21.924;2022-08-04T01:34:50;2.13;;;1.60;;
52816;SDS011;38687;43.330;21.924;2022-08-04T01:40:00;1.90;;;1.70;;
52816;SDS011;38687;43.330;21.924;2022-08-04T01:42:26;1.98;;;1.60;;
52816;SDS011;38687;43.330;21.924;2022-08-04T01:44:55;2.28;;;1.67;;
52816;SDS011;38687;43.330;21.924;2022-08-04T01:47:22;3.58;;;1.75;;
52816;SDS011;38687;43.330;21.924;2022-08-04T01:49:51;1.80;;;1.70;;
52816;SDS011;38687;43.330;21.924;2022-08-04T01:52:25;3.80;;;1.83;;
52816;SDS011;38687;43.330;21.924;2022-08-04T01:54:51;5.20;;;2.17;;
52816;SDS011;38687;43.330;21.924;2022-08-04T01:57:17;1.95;;;1.75;;
52816;SDS011;38687;43.330;21.924;2022-08-04T01:59:43;1.88;;;1.77;;
52816;SDS011;38687;43.330;21.924;2022-08-04T02:02:12;3.42;;;1.67;;
52816;SDS011;38687;43.330;21.924;2022-08-04T02:04:40;2.05;;;1.55;;
52816;SDS011;38687;43.330;21.924;2022-08-04T02:14:56;2.15;;;1.88;;
52816;SDS011;38687;43.330;21.924;2022-08-04T02:17:39;2.70;;;1.90;;
52816;SDS011;38687;43.330;21.924;2022-08-04T02:20:18;2.65;;;1.60;;
52816;SDS011;38687;43.330;21.924;2022-08-04T02:22:50;2.70;;;1.65;;
52816;SDS011;38687;43.330;21.924;2022-08-04T02:25:22;2.67;;;1.77;;
52816;SDS011;38687;43.330;21.924;2022-08-04T02:33:25;4.57;;;1.60;;
52816;SDS011;38687;43.330;21.924;2022-08-04T02:35:55;2.13;;;1.83;;
52816;SDS011;38687;43.330;21.924;2022-08-04T02:41:08;1.98;;;1.65;;
52816;SDS011;38687;43.330;21.924;2022-08-04T02:43:35;2.22;;;1.70;;
52816;SDS011;38687;43.330;21.924;2022-08-04T02:46:00;2.45;;;1.77;;
52816;SDS011;38687;43.330;21.924;2022-08-04T02:48:27;1.88;;;1.52;;
52816;SDS011;38687;43.330;21.924;2022-08-04T02:50:53;2.88;;;2.00;;
52816;SDS011;38687;43.330;21.924;2022-08-04T02:53:22;3.15;;;1.40;;
52816;SDS011;38687;43.330;21.924;2022-08-04T02:55:49;2.88;;;1.98;;
52816;SDS011;38687;43.330;21.924;2022-08-04T02:58:16;2.03;;;1.67;;
52816;SDS011;38687;43.330;21.924;2022-08-04T03:00:43;3.42;;;1.55;;
52816;SDS011;38687;43.330;21.924;2022-08-04T03:14:19;3.08;;;1.70;;
52816;SDS011;38687;43.330;21.924;2022-08-04T03:26:51;2.38;;;1.70;;
52816;SDS011;38687;43.330;21.924;2022-08-04T03:34:33;3.00;;;1.70;;
52816;SDS011;38687;43.330;21.924;2022-08-04T03:39:30;2.28;;;2.08;;
52816;SDS011;38687;43.330;21.924;2022-08-04T04:00:12;2.47;;;1.67;;
52816;SDS011;38687;43.330;21.924;2022-08-04T04:16:37;5.75;;;2.60;;
52816;SDS011;38687;43.330;21.924;2022-08-04T04:22:14;2.15;;;1.95;;
52816;SDS011;38687;43.330;21.924;2022-08-04T04:41:54;2.88;;;1.80;;
52816;SDS011;38687;43.330;21.924;2022-08-04T04:46:58;2.28;;;1.92;;
52816;SDS011;38687;43.330;21.924;2022-08-04T04:49:34;3.95;;;1.92;;
52816;SDS011;38687;43.330;21.924;2022-08-04T04:57:35;1.67;;;1.58;;
52816;SDS011;38687;43.330;21.924;2022-08-04T05:00:03;3.80;;;2.28;;
52816;SDS011;38687;43.330;21.924;2022-08-04T05:13:36;2.55;;;1.77;;
52816;SDS011;38687;43.330;21.924;2022-08-04T05:16:16;2.22;;;1.65;;
52816;SDS011;38687;43.330;21.924;2022-08-04T05:18:47;2.00;;;1.60;;
52816;SDS011;38687;43.330;21.924;2022-08-04T05:21:30;2.30;;;1.50;;
52816;SDS011;38687;43.330;21.924;2022-08-04T05:24:01;1.63;;;1.52;;
52816;SDS011;38687;43.330;21.924;2022-08-04T05:26:30;1.88;;;1.55;;
52816;SDS011;38687;43.330;21.924;2022-08-04T05:28:58;2.50;;;1.80;;
52816;SDS011;38687;43.330;21.924;2022-08-04T05:31:32;2.65;;;1.80;;
52816;SDS011;38687;43.330;21.924;2022-08-04T05:34:14;1.60;;;1.50;;
52816;SDS011;38687;43.330;21.924;2022-08-04T05:36:48;2.85;;;1.58;;
52816;SDS011;38687;43.330;21.924;2022-08-04T05:39:18;3.75;;;1.80;;
52816;SDS011;38687;43.330;21.924;2022-08-04T05:41:45;1.92;;;1.73;;
52816;SDS011;38687;43.330;21.924;2022-08-04T05:44:13;2.10;;;1.65;;
52816;SDS011;38687;43.330;21.924;2022-08-04T05:46:39;1.52;;;1.40;;
52816;SDS011;38687;43.330;21.924;2022-08-04T05:49:08;4.13;;;1.80;;
52816;SDS011;38687;43.330;21.924;2022-08-04T05:51:35;2.92;;;1.65;;
52816;SDS011;38687;43.330;21.924;2022-08-04T05:54:00;2.40;;;1.90;;
52816;SDS011;38687;43.330;21.924;2022-08-04T05:56:29;1.85;;;1.45;;
52816;SDS011;38687;43.330;21.924;2022-08-04T05:58:57;2.25;;;2.03;;
52816;SDS011;38687;43.330;21.924;2022-08-04T06:01:27;6.50;;;2.33;;
52816;SDS011;38687;43.330;21.924;2022-08-04T06:03:54;2.30;;;1.63;;
52816;SDS011;38687;43.330;21.924;2022-08-04T06:06:21;2.20;;;1.80;;
52816;SDS011;38687;43.330;21.924;2022-08-04T06:08:47;4.00;;;1.65;;
52816;SDS011;38687;43.330;21.924;2022-08-04T06:11:12;4.25;;;1.70;;
52816;SDS011;38687;43.330;21.924;2022-08-04T06:13:40;1.50;;;1.40;;
52816;SDS011;38687;43.330;21.924;2022-08-04T06:16:11;3.58;;;1.92;;
52816;SDS011;38687;43.330;21.924;2022-08-04T06:18:37;2.17;;;1.38;;
52816;SDS011;38687;43.330;21.924;2022-08-04T06:21:03;2.28;;;1.90;;
52816;SDS011;38687;43.330;21.924;2022-08-04T06:23:30;2.95;;;1.40;;
52816;SDS011;38687;43.330;21.924;2022-08-04T06:25:57;3.15;;;2.00;;
52816;SDS011;38687;43.330;21.924;2022-08-04T06:28:25;1.90;;;1.77;;
52816;SDS011;38687;43.330;21.924;2022-08-04T06:30:51;4.95;;;1.58;;
52816;SDS011;38687;43.330;21.924;2022-08-04T06:33:19;2.78;;;1.92;;
52816;SDS011;38687;43.330;21.924;2022-08-04T06:35:51;2.63;;;1.67;;
52816;SDS011;38687;43.330;21.924;2022-08-04T06:38:23;2.63;;;1.80;;
52816;SDS011;38687;43.330;21.924;2022-08-04T06:40:50;3.47;;;1.90;;
52816;SDS011;38687;43.330;21.924;2022-08-04T06:43:15;2.88;;;1.80;;
52816;SDS011;38687;43.330;21.924;2022-08-04T06:45:41;2.75;;;1.40;;
52816;SDS011;38687;43.330;21.924;2022-08-04T06:48:10;2.80;;;1.75;;
52816;SDS011;38687;43.330;21.924;2022-08-04T06:50:36;1.75;;;1.35;;
52816;SDS011;38687;43.330;21.924;2022-08-04T06:53:03;2.38;;;1.50;;
52816;SDS011;38687;43.330;21.924;2022-08-04T06:55:29;3.15;;;1.90;;
52816;SDS011;38687;43.330;21.924;2022-08-04T06:57:55;3.90;;;1.63;;
52816;SDS011;38687;43.330;21.924;2022-08-04T07:00:21;4.35;;;2.03;;
52816;SDS011;38687;43.330;21.924;2022-08-04T07:02:50;1.98;;;1.40;;
52816;SDS011;38687;43.330;21.924;2022-08-04T07:05:17;3.78;;;2.00;;
52816;SDS011;38687;43.330;21.924;2022-08-04T07:07:42;3.20;;;2.25;;
52816;SDS011;38687;43.330;21.924;2022-08-04T07:10:09;1.63;;;1.50;;
52816;SDS011;38687;43.330;21.924;2022-08-04T07:12:35;1.80;;;1.58;;
52816;SDS011;38687;43.330;21.924;2022-08-04T07:15:01;3.63;;;1.63;;
52816;SDS011;38687;43.330;21.924;2022-08-04T07:17:27;2.35;;;1.90;;
52816;SDS011;38687;43.330;21.924;2022-08-04T07:19:54;3.78;;;1.80;;
52816;SDS011;38687;43.330;21.924;2022-08-04T07:22:20;2.72;;;1.90;;
52816;SDS011;38687;43.330;21.924;2022-08-04T07:24:46;1.80;;;1.70;;
52816;SDS011;38687;43.330;21.924;2022-08-04T07:27:11;3.25;;;2.20;;
52816;SDS011;38687;43.330;21.924;2022-08-04T07:29:37;2.15;;;1.83;;
52816;SDS011;38687;43.330;21.924;2022-08-04T07:32:04;2.45;;;2.13;;
52816;SDS011;38687;43.330;21.924;2022-08-04T07:34:30;3.35;;;2.10;;
52816;SDS011;38687;43.330;21.924;2022-08-04T07:36:57;4.70;;;2.28;;
52816;SDS011;38687;43.330;21.924;2022-08-04T07:39:24;1.85;;;1.75;;
52816;SDS011;38687;43.330;21.924;2022-08-04T07:41:51;2.13;;;1.88;;
52816;SDS011;38687;43.330;21.924;2022-08-04T07:44:17;5.70;;;2.28;;
52816;SDS011;38687;43.330;21.924;2022-08-04T07:46:44;2.10;;;1.90;;
52816;SDS011;38687;43.330;21.924;2022-08-04T07:49:10;2.55;;;1.70;;
52816;SDS011;38687;43.330;21.924;2022-08-04T07:51:36;2.25;;;1.77;;
52816;SDS011;38687;43.330;21.924;2022-08-04T07:54:03;2.15;;;1.85;;
52816;SDS011;38687;43.330;21.924;2022-08-04T07:56:30;3.65;;;2.10;;
52816;SDS011;38687;43.330;21.924;2022-08-04T07:58:57;3.53;;;3.22;;
52816;SDS011;38687;43.330;21.924;2022-08-04T08:01:24;3.00;;;2.55;;
52816;SDS011;38687;43.330;21.924;2022-08-04T08:03:50;2.50;;;1.73;;
52816;SDS011;38687;43.330;21.924;2022-08-04T08:06:17;2.03;;;1.83;;
52816;SDS011;38687;43.330;21.924;2022-08-04T08:08:42;2.08;;;1.80;;
52816;SDS011;38687;43.330;21.924;2022-08-04T08:11:08;3.25;;;2.08;;
52816;SDS011;38687;43.330;21.924;2022-08-04T08:13:35;3.08;;;2.03;;
52816;SDS011;38687;43.330;21.924;2022-08-04T08:16:01;2.80;;;2.10;;
52816;SDS011;38687;43.330;21.924;2022-08-04T08:18:27;3.33;;;2.00;;
52816;SDS011;38687;43.330;21.924;2022-08-04T08:20:53;3.28;;;2.45;;
52816;SDS011;38687;43.330;21.924;2022-08-04T08:23:19;2.00;;;1.75;;
52816;SDS011;38687;43.330;21.924;2022-08-04T08:25:45;3.97;;;1.80;;
52816;SDS011;38687;43.330;21.924;2022-08-04T08:28:10;2.42;;;1.83;;
52816;SDS011;38687;43.330;21.924;2022-08-04T08:30:36;6.78;;;2.83;;
52816;SDS011;38687;43.330;21.924;2022-08-04T08:33:03;2.33;;;2.00;;
52816;SDS011;38687;43.330;21.924;2022-08-04T08:35:32;2.38;;;2.03;;
52816;SDS011;38687;43.330;21.924;2022-08-04T08:38:00;3.75;;;2.53;;
52816;SDS011;38687;43.330;21.924;2022-08-04T08:45:57;2.63;;;1.98;;
52816;SDS011;38687;43.330;21.924;2022-08-04T08:48:46;2.28;;;1.92;;
52816;SDS011;38687;43.330;21.924;2022-08-04T09:08:04;3.10;;;2.13;;
52816;SDS011;38687;43.330;21.924;2022-08-04T09:10:52;2.20;;;2.00;;
52816;SDS011;38687;43.330;21.924;2022-08-04T09:21:16;4.05;;;2.13;;
52816;SDS011;38687;43.330;21.924;2022-08-04T09:23:59;3.60;;;2.13;;
52816;SDS011;38687;43.330;21.924;2022-08-04T09:32:16;3.45;;;1.88;;
52816;SDS011;38687;43.330;21.924;2022-08-04T09:35:02;2.25;;;2.10;;
52816;SDS011;38687;43.330;21.924;2022-08-04T09:37:59;4.82;;;2.13;;
52816;SDS011;38687;43.330;21.924;2022-08-04T09:40:46;2.97;;;2.28;;
52816;SDS011;38687;43.330;21.924;2022-08-04T09:48:58;3.80;;;2.38;;
52816;SDS011;38687;43.330;21.924;2022-08-04T09:54:22;2.58;;;2.38;;
52816;SDS011;38687;43.330;21.924;2022-08-04T09:59:30;2.22;;;2.05;;
52816;SDS011;38687;43.330;21.924;2022-08-04T10:02:05;2.13;;;1.93;;
52816;SDS011;38687;43.330;21.924;2022-08-04T10:04:32;3.78;;;2.30;;
52816;SDS011;38687;43.330;21.924;2022-08-04T10:12:17;4.68;;;2.25;;
52816;SDS011;38687;43.330;21.924;2022-08-04T10:20:06;3.47;;;2.17;;
52816;SDS011;38687;43.330;21.924;2022-08-04T10:28:02;2.70;;;1.92;;
52816;SDS011;38687;43.330;21.924;2022-08-04T10:30:30;2.35;;;2.15;;
52816;SDS011;38687;43.330;21.924;2022-08-04T10:35:58;3.20;;;2.00;;
52816;SDS011;38687;43.330;21.924;2022-08-04T10:51:41;2.30;;;2.10;;
52816;SDS011;38687;43.330;21.924;2022-08-04T11:00:24;2.42;;;1.83;;
52816;SDS011;38687;43.330;21.924;2022-08-04T11:08:08;2.10;;;1.90;;
52816;SDS011;38687;43.330;21.924;2022-08-04T11:10:44;2.92;;;2.10;;
52816;SDS011;38687;43.330;21.924;2022-08-04T11:13:12;1.80;;;1.70;;
52816;SDS011;38687;43.330;21.924;2022-08-04T11:15:44;1.83;;;1.63;;
52816;SDS011;38687;43.330;21.924;2022-08-04T11:18:22;2.08;;;1.80;;
52816;SDS011;38687;43.330;21.924;2022-08-04T11:21:13;2.00;;;1.83;;
52816;SDS011;38687;43.330;21.924;2022-08-04T11:23:43;2.53;;;1.90;;
52816;SDS011;38687;43.330;21.924;2022-08-04T11:29:28;2.72;;;2.17;;
52816;SDS011;38687;43.330;21.924;2022-08-04T11:31:59;2.08;;;1.88;;
52816;SDS011;38687;43.330;21.924;2022-08-04T11:34:27;2.13;;;1.88;;
52816;SDS011;38687;43.330;21.924;2022-08-04T11:37:02;1.88;;;1.65;;
52816;SDS011;38687;43.330;21.924;2022-08-04T11:47:03;2.25;;;1.80;;
52816;SDS011;38687;43.330;21.924;2022-08-04T11:49:40;2.72;;;1.67;;
52816;SDS011;38687;43.330;21.924;2022-08-04T11:52:26;1.67;;;1.55;;
52816;SDS011;38687;43.330;21.924;2022-08-04T11:54:53;2.63;;;2.15;;
52816;SDS011;38687;43.330;21.924;2022-08-04T11:57:20;3.10;;;2.00;;
52816;SDS011;38687;43.330;21.924;2022-08-04T11:59:46;4.53;;;2.97;;
52816;SDS011;38687;43.330;21.924;2022-08-04T12:05:13;1.70;;;1.60;;
52816;SDS011;38687;43.330;21.924;2022-08-04T12:13:45;2.47;;;1.80;;
52816;SDS011;38687;43.330;21.924;2022-08-04T12:16:16;2.15;;;1.80;;
52816;SDS011;38687;43.330;21.924;2022-08-04T12:18:49;1.85;;;1.63;;
52816;SDS011;38687;43.330;21.924;2022-08-04T12:21:24;1.50;;;1.40;;
52816;SDS011;38687;43.330;21.924;2022-08-04T12:23:56;1.75;;;1.60;;
52816;SDS011;38687;43.330;21.924;2022-08-04T12:26:27;1.85;;;1.52;;
52816;SDS011;38687;43.330;21.924;2022-08-04T12:28:57;2.85;;;1.90;;
52816;SDS011;38687;43.330;21.924;2022-08-04T12:31:26;4.05;;;1.90;;
52816;SDS011;38687;43.330;21.924;2022-08-04T12:36:44;1.77;;;1.52;;
52816;SDS011;38687;43.330;21.924;2022-08-04T12:39:15;1.98;;;1.40;;
52816;SDS011;38687;43.330;21.924;2022-08-04T12:44:22;1.92;;;1.60;;
52816;SDS011;38687;43.330;21.924;2022-08-04T12:46:49;2.53;;;1.70;;
52816;SDS011;38687;43.330;21.924;2022-08-04T12:49:15;1.75;;;1.40;;
52816;SDS011;38687;43.330;21.924;2022-08-04T12:51:42;1.75;;;1.40;;
52816;SDS011;38687;43.330;21.924;2022-08-04T12:54:09;3.05;;;1.65;;
52816;SDS011;38687;43.330;21.924;2022-08-04T12:56:35;1.88;;;1.52;;
52816;SDS011;38687;43.330;21.924;2022-08-04T12:59:03;3.10;;;1.60;;
52816;SDS011;38687;43.330;21.924;2022-08-04T13:01:30;1.95;;;1.50;;
52816;SDS011;38687;43.330;21.924;2022-08-04T13:04:30;4.35;;;1.50;;
52816;SDS011;38687;43.330;21.924;2022-08-04T13:06:56;1.42;;;1.33;;
52816;SDS011;38687;43.330;21.924;2022-08-04T13:09:28;1.88;;;1.40;;
52816;SDS011;38687;43.330;21.924;2022-08-04T13:12:01;1.65;;;1.50;;
52816;SDS011;38687;43.330;21.924;2022-08-04T13:14:33;1.92;;;1.20;;
52816;SDS011;38687;43.330;21.924;2022-08-04T13:17:01;1.95;;;1.70;;
52816;SDS011;38687;43.330;21.924;2022-08-04T13:19:30;2.20;;;1.60;;
52816;SDS011;38687;43.330;21.924;2022-08-04T13:21:56;1.90;;;1.77;;
52816;SDS011;38687;43.330;21.924;2022-08-04T13:24:24;1.92;;;1.73;;
52816;SDS011;38687;43.330;21.924;2022-08-04T13:27:06;2.60;;;1.55;;
52816;SDS011;38687;43.330;21.924;2022-08-04T13:29:40;2.38;;;1.42;;
52816;SDS011;38687;43.330;21.924;2022-08-04T13:32:07;2.05;;;1.65;;
52816;SDS011;38687;43.330;21.924;2022-08-04T13:34:34;1.83;;;1.67;;
52816;SDS011;38687;43.330;21.924;2022-08-04T13:37:01;2.03;;;1.85;;
52816;SDS011;38687;43.330;21.924;2022-08-04T13:39:27;1.80;;;1.70;;
52816;SDS011;38687;43.330;21.924;2022-08-04T13:41:54;1.60;;;1.50;;
52816;SDS011;38687;43.330;21.924;2022-08-04T13:44:22;2.03;;;1.60;;
52816;SDS011;38687;43.330;21.924;2022-08-04T13:46:54;2.75;;;1.55;;
52816;SDS011;38687;43.330;21.924;2022-08-04T13:49:22;1.95;;;1.75;;
52816;SDS011;38687;43.330;21.924;2022-08-04T13:51:52;2.13;;;1.90;;
52816;SDS011;38687;43.330;21.924;2022-08-04T13:54:19;2.22;;;2.00;;
52816;SDS011;38687;43.330;21.924;2022-08-04T13:56:46;1.80;;;1.50;;
52816;SDS011;38687;43.330;21.924;2022-08-04T13:59:15;2.15;;;1.95;;
52816;SDS011;38687;43.330;21.924;2022-08-04T14:01:44;1.90;;;1.65;;
52816;SDS011;38687;43.330;21.924;2022-08-04T14:04:16;2.83;;;1.88;;
52816;SDS011;38687;43.330;21.924;2022-08-04T14:06:50;1.95;;;1.85;;
52816;SDS011;38687;43.330;21.924;2022-08-04T14:09:19;2.63;;;2.00;;
52816;SDS011;38687;43.330;21.924;2022-08-04T14:11:47;2.53;;;1.80;;
52816;SDS011;38687;43.330;21.924;2022-08-04T14:17:11;1.80;;;1.70;;
52816;SDS011;38687;43.330;21.924;2022-08-04T14:19:47;2.38;;;2.03;;
52816;SDS011;38687;43.330;21.924;2022-08-04T14:22:36;5.65;;;1.90;;
52816;SDS011;38687;43.330;21.924;2022-08-04T14:27:53;1.77;;;1.65;;
52816;SDS011;38687;43.330;21.924;2022-08-04T14:30:25;1.83;;;1.70;;
52816;SDS011;38687;43.330;21.924;2022-08-04T14:33:09;2.50;;;1.52;;
52816;SDS011;38687;43.330;21.924;2022-08-04T14:35:36;2.35;;;2.15;;
52816;SDS011;38687;43.330;21.924;2022-08-04T14:38:05;2.58;;;1.88;;
52816;SDS011;38687;43.330;21.924;2022-08-04T14:40:35;2.97;;;1.75;;
52816;SDS011;38687;43.330;21.924;2022-08-04T14:43:02;2.40;;;2.20;;
52816;SDS011;38687;43.330;21.924;2022-08-04T14:48:02;1.95;;;1.85;;
52816;SDS011;38687;43.330;21.924;2022-08-04T14:50:38;2.97;;;1.80;;
52816;SDS011;38687;43.330;21.924;2022-08-04T14:55:44;2.13;;;1.95;;
52816;SDS011;38687;43.330;21.924;2022-08-04T14:58:16;2.28;;;2.08;;
52816;SDS011;38687;43.330;21.924;2022-08-04T15:00:52;1.90;;;1.80;;
52816;SDS011;38687;43.330;21.924;2022-08-04T15:03:42;2.22;;;1.85;;
52816;SDS011;38687;43.330;21.924;2022-08-04T15:06:09;2.25;;;2.05;;
52816;SDS011;38687;43.330;21.924;2022-08-04T15:08:34;2.15;;;1.95;;
52816;SDS011;38687;43.330;21.924;2022-08-04T15:11:00;2.30;;;2.10;;
52816;SDS011;38687;43.330;21.924;2022-08-04T15:13:27;2.05;;;1.90;;
52816;SDS011;38687;43.330;21.924;2022-08-04T15:15:54;2.65;;;2.00;;
52816;SDS011;38687;43.330;21.924;2022-08-04T15:18:19;3.90;;;1.90;;
52816;SDS011;38687;43.330;21.924;2022-08-04T15:20:45;2.38;;;2.08;;
52816;SDS011;38687;43.330;21.924;2022-08-04T15:23:11;1.80;;;1.70;;
52816;SDS011;38687;43.330;21.924;2022-08-04T15:25:41;2.50;;;2.30;;
52816;SDS011;38687;43.330;21.924;2022-08-04T15:28:17;2.42;;;1.77;;
52816;SDS011;38687;43.330;21.924;2022-08-04T15:30:47;2.13;;;1.98;;
52816;SDS011;38687;43.330;21.924;2022-08-04T15:33:13;2.47;;;2.05;;
52816;SDS011;38687;43.330;21.924;2022-08-04T15:35:40;2.70;;;2.50;;
52816;SDS011;38687;43.330;21.924;2022-08-04T15:38:08;4.03;;;2.20;;
52816;SDS011;38687;43.330;21.924;2022-08-04T15:40:58;2.50;;;2.17;;
52816;SDS011;38687;43.330;21.924;2022-08-04T15:46:09;1.83;;;1.73;;
52816;SDS011;38687;43.330;21.924;2022-08-04T15:48:35;2.35;;;1.58;;
52816;SDS011;38687;43.330;21.924;2022-08-04T15:51:03;2.92;;;1.70;;
52816;SDS011;38687;43.330;21.924;2022-08-04T15:58:50;2.67;;;1.98;;
52816;SDS011;38687;43.330;21.924;2022-08-04T16:01:18;1.83;;;1.73;;
52816;SDS011;38687;43.330;21.924;2022-08-04T16:03:45;2.85;;;2.10;;
52816;SDS011;38687;43.330;21.924;2022-08-04T16:14:08;2.00;;;1.80;;
52816;SDS011;38687;43.330;21.924;2022-08-04T16:19:05;1.80;;;1.70;;
52816;SDS011;38687;43.330;21.924;2022-08-04T16:21:31;2.33;;;1.98;;
52816;SDS011;38687;43.330;21.924;2022-08-04T16:24:07;3.17;;;2.10;;
52816;SDS011;38687;43.330;21.924;2022-08-04T16:26:45;1.90;;;1.77;;
52816;SDS011;38687;43.330;21.924;2022-08-04T16:37:09;2.40;;;1.90;;
52816;SDS011;38687;43.330;21.924;2022-08-04T16:39:36;2.47;;;1.65;;
52816;SDS011;38687;43.330;21.924;2022-08-04T16:50:12;2.95;;;1.70;;
52816;SDS011;38687;43.330;21.924;2022-08-04T16:52:47;2.38;;;2.00;;
52816;SDS011;38687;43.330;21.924;2022-08-04T16:55:17;3.90;;;2.10;;
52816;SDS011;38687;43.330;21.924;2022-08-04T16:57:47;2.10;;;1.88;;
52816;SDS011;38687;43.330;21.924;2022-08-04T17:00:13;2.17;;;1.90;;
52816;SDS011;38687;43.330;21.924;2022-08-04T17:02:39;1.85;;;1.75;;
52816;SDS011;38687;43.330;21.924;2022-08-04T17:05:06;2.40;;;2.00;;
52816;SDS011;38687;43.330;21.924;2022-08-04T17:07:52;2.40;;;1.65;;
52816;SDS011;38687;43.330;21.924;2022-08-04T17:10:43;2.05;;;1.80;;
52816;SDS011;38687;43.330;21.924;2022-08-04T17:16:14;2.30;;;2.10;;
52816;SDS011;38687;43.330;21.924;2022-08-04T17:18:44;4.22;;;2.10;;
52816;SDS011;38687;43.330;21.924;2022-08-04T17:21:17;2.10;;;1.90;;
52816;SDS011;38687;43.330;21.924;2022-08-04T17:23:48;2.15;;;1.92;;
52816;SDS011;38687;43.330;21.924;2022-08-04T17:26:20;4.57;;;2.17;;
52816;SDS011;38687;43.330;21.924;2022-08-04T17:28:48;4.00;;;1.90;;
52816;SDS011;38687;43.330;21.924;2022-08-04T17:31:14;3.05;;;1.92;;
52816;SDS011;38687;43.330;21.924;2022-08-04T17:33:44;3.00;;;2.08;;
52816;SDS011;38687;43.330;21.924;2022-08-04T17:36:10;2.70;;;2.50;;
52816;SDS011;38687;43.330;21.924;2022-08-04T17:41:04;2.50;;;2.30;;
52816;SDS011;38687;43.330;21.924;2022-08-04T17:48:42;3.25;;;2.35;;
52816;SDS011;38687;43.330;21.924;2022-08-04T17:51:14;4.72;;;2.33;;
52816;SDS011;38687;43.330;21.924;2022-08-04T17:53:40;2.40;;;2.10;;
52816;SDS011;38687;43.330;21.924;2022-08-04T17:56:53;2.70;;;2.03;;
52816;SDS011;38687;43.330;21.924;2022-08-04T17:59:15;5.63;;;2.53;;
52816;SDS011;38687;43.330;21.924;2022-08-04T18:07:11;2.55;;;2.22;;
52816;SDS011;38687;43.330;21.924;2022-08-04T18:12:22;5.05;;;2.22;;
52816;SDS011;38687;43.330;21.924;2022-08-04T18:14:50;1.92;;;1.73;;
52816;SDS011;38687;43.330;21.924;2022-08-04T18:17:30;2.03;;;1.90;;
52816;SDS011;38687;43.330;21.924;2022-08-04T18:20:00;2.42;;;2.22;;
52816;SDS011;38687;43.330;21.924;2022-08-04T18:22:27;3.10;;;2.58;;
52816;SDS011;38687;43.330;21.924;2022-08-04T18:24:53;3.92;;;2.38;;
52816;SDS011;38687;43.330;21.924;2022-08-04T18:27:19;6.25;;;3.15;;
52816;SDS011;38687;43.330;21.924;2022-08-04T18:29:47;2.15;;;2.03;;
52816;SDS011;38687;43.330;21.924;2022-08-04T18:32:13;2.15;;;1.95;;
52816;SDS011;38687;43.330;21.924;2022-08-04T18:34:38;5.72;;;3.00;;
52816;SDS011;38687;43.330;21.924;2022-08-04T18:37:04;3.95;;;2.63;;
52816;SDS011;38687;43.330;21.924;2022-08-04T18:39:29;3.88;;;2.53;;
52816;SDS011;38687;43.330;21.924;2022-08-04T18:41:55;3.97;;;3.20;;
52816;SDS011;38687;43.330;21.924;2022-08-04T18:44:21;3.38;;;2.63;;
52816;SDS011;38687;43.330;21.924;2022-08-04T18:46:47;4.15;;;2.42;;
52816;SDS011;38687;43.330;21.924;2022-08-04T18:49:12;3.63;;;2.50;;
52816;SDS011;38687;43.330;21.924;2022-08-04T18:51:38;4.10;;;2.58;;
52816;SDS011;38687;43.330;21.924;2022-08-04T18:54:04;3.03;;;2.42;;
52816;SDS011;38687;43.330;21.924;2022-08-04T18:56:30;6.55;;;3.45;;
52816;SDS011;38687;43.330;21.924;2022-08-04T18:58:56;2.28;;;2.08;;
52816;SDS011;38687;43.330;21.924;2022-08-04T19:01:21;3.33;;;2.35;;
52816;SDS011;38687;43.330;21.924;2022-08-04T19:03:47;2.78;;;2.50;;
52816;SDS011;38687;43.330;21.924;2022-08-04T19:06:12;2.72;;;2.30;;
52816;SDS011;38687;43.330;21.924;2022-08-04T19:08:38;3.25;;;2.50;;
52816;SDS011;38687;43.330;21.924;2022-08-04T19:11:04;3.63;;;3.17;;
52816;SDS011;38687;43.330;21.924;2022-08-04T19:13:30;4.20;;;3.13;;
52816;SDS011;38687;43.330;21.924;2022-08-04T19:15:56;2.83;;;2.63;;
52816;SDS011;38687;43.330;21.924;2022-08-04T19:18:22;5.72;;;3.40;;
52816;SDS011;38687;43.330;21.924;2022-08-04T19:20:48;5.20;;;3.10;;
52816;SDS011;38687;43.330;21.924;2022-08-04T19:23:14;6.50;;;3.33;;
52816;SDS011;38687;43.330;21.924;2022-08-04T19:25:40;4.40;;;3.30;;
52816;SDS011;38687;43.330;21.924;2022-08-04T19:28:06;5.07;;;2.75;;
52816;SDS011;38687;43.330;21.924;2022-08-04T19:30:31;3.00;;;2.75;;
52816;SDS011;38687;43.330;21.924;2022-08-04T19:32:56;3.17;;;2.70;;
52816;SDS011;38687;43.330;21.924;2022-08-04T19:35:22;3.78;;;2.63;;
52816;SDS011;38687;43.330;21.924;2022-08-04T19:37:48;3.03;;;2.70;;
52816;SDS011;38687;43.330;21.924;2022-08-04T19:40:13;2.97;;;2.67;;
52816;SDS011;38687;43.330;21.924;2022-08-04T19:42:39;3.42;;;2.75;;
52816;SDS011;38687;43.330;21.924;2022-08-04T19:45:06;3.17;;;2.60;;
52816;SDS011;38687;43.330;21.924;2022-08-04T19:47:35;4.78;;;2.28;;
52816;SDS011;38687;43.330;21.924;2022-08-04T19:50:00;2.92;;;2.40;;
52816;SDS011;38687;43.330;21.924;2022-08-04T19:52:26;5.55;;;2.85;;
52816;SDS011;38687;43.330;21.924;2022-08-04T19:54:51;3.28;;;2.97;;
52816;SDS011;38687;43.330;21.924;2022-08-04T19:57:17;3.10;;;2.80;;
52816;SDS011;38687;43.330;21.924;2022-08-04T19:59:44;6.95;;;3.03;;
52816;SDS011;38687;43.330;21.924;2022-08-04T20:02:09;4.72;;;2.45;;
52816;SDS011;38687;43.330;21.924;2022-08-04T20:04:35;2.97;;;2.67;;
52816;SDS011;38687;43.330;21.924;2022-08-04T20:07:00;6.13;;;2.60;;
52816;SDS011;38687;43.330;21.924;2022-08-04T20:09:25;2.63;;;2.25;;
52816;SDS011;38687;43.330;21.924;2022-08-04T20:11:51;4.15;;;2.80;;
52816;SDS011;38687;43.330;21.924;2022-08-04T20:14:16;3.40;;;2.72;;
52816;SDS011;38687;43.330;21.924;2022-08-04T20:16:42;3.40;;;2.60;;
52816;SDS011;38687;43.330;21.924;2022-08-04T20:19:07;2.63;;;2.28;;
52816;SDS011;38687;43.330;21.924;2022-08-04T20:21:33;5.32;;;2.88;;